sensor_id;sensor_type;location;lat;lon;timestamp;P1;durP1;ratioP1;P2;durP2;ratioP2
17947;SDS011;9099;47.958;11.366;2023-04-03T00:01:35;4.37;;;4.07;;
17947;SDS011;9099;47.958;11.366;2023-04-03T00:04:03;5.23;;;4.83;;
17947;SDS011;9099;47.958;11.366;2023-04-03T00:06:31;4.73;;;4.33;;
17947;SDS011;9099;47.958;11.366;2023-04-03T00:08:58;4.90;;;4.60;;
17947;SDS011;9099;47.958;11.366;2023-04-03T00:11:25;4.83;;;4.43;;
17947;SDS011;9099;47.958;11.366;2023-04-03T00:13:52;4.87;;;4.47;;
17947;SDS011;9099;47.958;11.366;2023-04-03T00:16:19;4.57;;;4.23;;
17947;SDS011;9099;47.958;11.366;2023-04-03T00:18:46;4.67;;;4.33;;
17947;SDS011;9099;47.958;11.366;2023-04-03T00:21:13;4.47;;;4.13;;
17947;SDS011;9099;47.958;11.366;2023-04-03T00:23:41;4.88;;;4.47;;
17947;SDS011;9099;47.958;11.366;2023-04-03T00:26:08;4.50;;;4.10;;
17947;SDS011;9099;47.958;11.366;2023-04-03T00:28:35;4.63;;;4.23;;
17947;SDS011;9099;47.958;11.366;2023-04-03T00:31:02;5.30;;;4.90;;
17947;SDS011;9099;47.958;11.366;2023-04-03T00:33:29;5.37;;;4.87;;
17947;SDS011;9099;47.958;11.366;2023-04-03T00:35:56;6.00;;;5.40;;
17947;SDS011;9099;47.958;11.366;2023-04-03T00:38:23;5.00;;;4.60;;
17947;SDS011;9099;47.958;11.366;2023-04-03T00:40:51;5.57;;;5.07;;
17947;SDS011;9099;47.958;11.366;2023-04-03T00:43:19;5.90;;;5.40;;
17947;SDS011;9099;47.958;11.366;2023-04-03T00:45:48;5.77;;;5.27;;
17947;SDS011;9099;47.958;11.366;2023-04-03T00:48:16;5.77;;;5.27;;
17947;SDS011;9099;47.958;11.366;2023-04-03T00:50:46;5.53;;;5.13;;
17947;SDS011;9099;47.958;11.366;2023-04-03T00:53:16;5.27;;;4.87;;
17947;SDS011;9099;47.958;11.366;2023-04-03T00:55:45;5.10;;;4.70;;
17947;SDS011;9099;47.958;11.366;2023-04-03T00:58:16;5.03;;;4.63;;
17947;SDS011;9099;47.958;11.366;2023-04-03T01:00:46;5.30;;;4.83;;
17947;SDS011;9099;47.958;11.366;2023-04-03T01:03:21;5.83;;;5.33;;
17947;SDS011;9099;47.958;11.366;2023-04-03T01:05:47;5.23;;;4.73;;
17947;SDS011;9099;47.958;11.366;2023-04-03T01:08:15;5.40;;;5.00;;
17947;SDS011;9099;47.958;11.366;2023-04-03T01:10:42;5.20;;;4.80;;
17947;SDS011;9099;47.958;11.366;2023-04-03T01:13:18;6.13;;;5.60;;
17947;SDS011;9099;47.958;11.366;2023-04-03T01:15:48;5.93;;;5.43;;
17947;SDS011;9099;47.958;11.366;2023-04-03T01:18:14;5.23;;;4.77;;
17947;SDS011;9099;47.958;11.366;2023-04-03T01:21:00;5.00;;;4.60;;
17947;SDS011;9099;47.958;11.366;2023-04-03T01:23:52;5.13;;;4.73;;
17947;SDS011;9099;47.958;11.366;2023-04-03T01:26:29;5.20;;;4.80;;
17947;SDS011;9099;47.958;11.366;2023-04-03T01:28:58;4.80;;;4.40;;
17947;SDS011;9099;47.958;11.366;2023-04-03T01:31:26;5.53;;;5.03;;
17947;SDS011;9099;47.958;11.366;2023-04-03T01:33:58;5.87;;;5.37;;
17947;SDS011;9099;47.958;11.366;2023-04-03T01:36:26;4.70;;;4.33;;
17947;SDS011;9099;47.958;11.366;2023-04-03T01:38:56;5.13;;;4.73;;
17947;SDS011;9099;47.958;11.366;2023-04-03T01:41:25;5.53;;;5.13;;
17947;SDS011;9099;47.958;11.366;2023-04-03T01:43:52;6.03;;;5.53;;
17947;SDS011;9099;47.958;11.366;2023-04-03T01:46:19;5.67;;;5.20;;
17947;SDS011;9099;47.958;11.366;2023-04-03T01:48:47;5.67;;;5.17;;
17947;SDS011;9099;47.958;11.366;2023-04-03T01:51:15;5.80;;;5.40;;
17947;SDS011;9099;47.958;11.366;2023-04-03T01:53:42;6.43;;;5.33;;
17947;SDS011;9099;47.958;11.366;2023-04-03T01:56:09;5.93;;;5.33;;
17947;SDS011;9099;47.958;11.366;2023-04-03T01:58:36;6.50;;;6.00;;
17947;SDS011;9099;47.958;11.366;2023-04-03T02:01:03;6.97;;;6.30;;
17947;SDS011;9099;47.958;11.366;2023-04-03T02:03:30;5.50;;;5.03;;
17947;SDS011;9099;47.958;11.366;2023-04-03T02:05:57;5.80;;;5.17;;
17947;SDS011;9099;47.958;11.366;2023-04-03T02:08:26;6.70;;;6.00;;
17947;SDS011;9099;47.958;11.366;2023-04-03T02:10:53;6.60;;;6.00;;
17947;SDS011;9099;47.958;11.366;2023-04-03T02:13:20;5.83;;;5.33;;
17947;SDS011;9099;47.958;11.366;2023-04-03T02:15:46;6.97;;;5.60;;
17947;SDS011;9099;47.958;11.366;2023-04-03T02:18:13;6.30;;;5.67;;
17947;SDS011;9099;47.958;11.366;2023-04-03T02:20:40;6.40;;;5.80;;
17947;SDS011;9099;47.958;11.366;2023-04-03T02:23:07;6.30;;;5.70;;
17947;SDS011;9099;47.958;11.366;2023-04-03T02:25:35;5.77;;;5.27;;
17947;SDS011;9099;47.958;11.366;2023-04-03T02:28:02;5.83;;;5.33;;
17947;SDS011;9099;47.958;11.366;2023-04-03T02:30:29;5.60;;;5.13;;
17947;SDS011;9099;47.958;11.366;2023-04-03T02:32:56;6.80;;;6.20;;
17947;SDS011;9099;47.958;11.366;2023-04-03T02:35:23;6.70;;;6.00;;
17947;SDS011;9099;47.958;11.366;2023-04-03T02:37:50;6.40;;;5.80;;
17947;SDS011;9099;47.958;11.366;2023-04-03T02:40:17;6.07;;;5.40;;
17947;SDS011;9099;47.958;11.366;2023-04-03T02:42:45;5.47;;;4.97;;
17947;SDS011;9099;47.958;11.366;2023-04-03T02:45:12;5.83;;;5.20;;
17947;SDS011;9099;47.958;11.366;2023-04-03T02:47:39;6.13;;;5.63;;
17947;SDS011;9099;47.958;11.366;2023-04-03T02:50:06;5.53;;;5.03;;
17947;SDS011;9099;47.958;11.366;2023-04-03T02:52:33;5.80;;;5.17;;
17947;SDS011;9099;47.958;11.366;2023-04-03T02:55:00;6.23;;;5.40;;
17947;SDS011;9099;47.958;11.366;2023-04-03T02:57:28;5.97;;;5.37;;
17947;SDS011;9099;47.958;11.366;2023-04-03T02:59:56;6.27;;;5.67;;
17947;SDS011;9099;47.958;11.366;2023-04-03T03:02:23;5.73;;;5.23;;
17947;SDS011;9099;47.958;11.366;2023-04-03T03:04:50;5.60;;;5.13;;
17947;SDS011;9099;47.958;11.366;2023-04-03T03:07:17;6.70;;;5.83;;
17947;SDS011;9099;47.958;11.366;2023-04-03T03:09:44;5.60;;;5.10;;
17947;SDS011;9099;47.958;11.366;2023-04-03T03:12:10;5.90;;;5.37;;
17947;SDS011;9099;47.958;11.366;2023-04-03T03:14:37;6.53;;;5.83;;
17947;SDS011;9099;47.958;11.366;2023-04-03T03:17:06;6.17;;;5.67;;
17947;SDS011;9099;47.958;11.366;2023-04-03T03:19:33;7.33;;;5.67;;
17947;SDS011;9099;47.958;11.366;2023-04-03T03:22:00;7.00;;;6.07;;
17947;SDS011;9099;47.958;11.366;2023-04-03T03:24:27;5.80;;;5.30;;
17947;SDS011;9099;47.958;11.366;2023-04-03T03:26:54;6.20;;;5.60;;
17947;SDS011;9099;47.958;11.366;2023-04-03T03:29:21;6.10;;;5.60;;
17947;SDS011;9099;47.958;11.366;2023-04-03T03:31:48;7.27;;;6.57;;
17947;SDS011;9099;47.958;11.366;2023-04-03T03:34:16;6.17;;;5.67;;
17947;SDS011;9099;47.958;11.366;2023-04-03T03:36:43;6.40;;;5.80;;
17947;SDS011;9099;47.958;11.366;2023-04-03T03:39:10;6.40;;;5.80;;
17947;SDS011;9099;47.958;11.366;2023-04-03T03:41:38;6.73;;;6.13;;
17947;SDS011;9099;47.958;11.366;2023-04-03T03:44:05;6.43;;;5.83;;
17947;SDS011;9099;47.958;11.366;2023-04-03T03:46:32;7.50;;;6.70;;
17947;SDS011;9099;47.958;11.366;2023-04-03T03:48:59;6.60;;;5.83;;
17947;SDS011;9099;47.958;11.366;2023-04-03T03:51:27;6.87;;;5.80;;
17947;SDS011;9099;47.958;11.366;2023-04-03T03:53:54;6.23;;;5.53;;
17947;SDS011;9099;47.958;11.366;2023-04-03T03:56:21;7.03;;;6.27;;
17947;SDS011;9099;47.958;11.366;2023-04-03T03:58:48;7.20;;;5.73;;
17947;SDS011;9099;47.958;11.366;2023-04-03T04:01:15;9.30;;;6.03;;
17947;SDS011;9099;47.958;11.366;2023-04-03T04:03:42;5.73;;;5.27;;
17947;SDS011;9099;47.958;11.366;2023-04-03T04:06:10;5.40;;;4.90;;
17947;SDS011;9099;47.958;11.366;2023-04-03T04:08:38;5.47;;;4.97;;
17947;SDS011;9099;47.958;11.366;2023-04-03T04:11:05;5.97;;;5.47;;
17947;SDS011;9099;47.958;11.366;2023-04-03T04:13:32;6.13;;;5.63;;
17947;SDS011;9099;47.958;11.366;2023-04-03T04:15:59;6.63;;;6.03;;
17947;SDS011;9099;47.958;11.366;2023-04-03T04:18:25;6.90;;;6.20;;
17947;SDS011;9099;47.958;11.366;2023-04-03T04:20:52;6.30;;;5.43;;
17947;SDS011;9099;47.958;11.366;2023-04-03T04:23:19;6.97;;;5.90;;
17947;SDS011;9099;47.958;11.366;2023-04-03T04:25:47;9.67;;;6.20;;
17947;SDS011;9099;47.958;11.366;2023-04-03T04:28:15;5.67;;;5.17;;
17947;SDS011;9099;47.958;11.366;2023-04-03T04:30:42;5.70;;;5.20;;
17947;SDS011;9099;47.958;11.366;2023-04-03T04:33:09;5.67;;;5.10;;
17947;SDS011;9099;47.958;11.366;2023-04-03T04:35:36;5.27;;;4.87;;
17947;SDS011;9099;47.958;11.366;2023-04-03T04:38:03;5.87;;;5.33;;
17947;SDS011;9099;47.958;11.366;2023-04-03T04:40:30;6.23;;;5.33;;
17947;SDS011;9099;47.958;11.366;2023-04-03T04:42:58;5.43;;;4.93;;
17947;SDS011;9099;47.958;11.366;2023-04-03T04:45:25;4.50;;;4.20;;
17947;SDS011;9099;47.958;11.366;2023-04-03T04:47:51;6.17;;;5.60;;
17947;SDS011;9099;47.958;11.366;2023-04-03T04:50:20;4.63;;;4.23;;
17947;SDS011;9099;47.958;11.366;2023-04-03T04:52:47;5.27;;;4.87;;
17947;SDS011;9099;47.958;11.366;2023-04-03T04:55:14;6.57;;;4.67;;
17947;SDS011;9099;47.958;11.366;2023-04-03T04:57:41;5.40;;;5.00;;
17947;SDS011;9099;47.958;11.366;2023-04-03T05:00:10;5.23;;;4.83;;
17947;SDS011;9099;47.958;11.366;2023-04-03T05:02:38;5.60;;;5.10;;
17947;SDS011;9099;47.958;11.366;2023-04-03T05:05:05;7.27;;;6.00;;
17947;SDS011;9099;47.958;11.366;2023-04-03T05:07:32;7.77;;;5.77;;
17947;SDS011;9099;47.958;11.366;2023-04-03T05:10:00;5.33;;;4.93;;
17947;SDS011;9099;47.958;11.366;2023-04-03T05:12:27;6.87;;;5.33;;
17947;SDS011;9099;47.958;11.366;2023-04-03T05:14:54;5.90;;;5.40;;
17947;SDS011;9099;47.958;11.366;2023-04-03T05:17:22;6.75;;;6.05;;
17947;SDS011;9099;47.958;11.366;2023-04-03T05:19:49;6.17;;;5.60;;
17947;SDS011;9099;47.958;11.366;2023-04-03T05:22:16;5.37;;;4.77;;
17947;SDS011;9099;47.958;11.366;2023-04-03T05:24:43;5.10;;;4.70;;
17947;SDS011;9099;47.958;11.366;2023-04-03T05:27:10;5.40;;;4.40;;
17947;SDS011;9099;47.958;11.366;2023-04-03T05:29:36;5.30;;;4.90;;
17947;SDS011;9099;47.958;11.366;2023-04-03T05:32:03;4.63;;;4.23;;
17947;SDS011;9099;47.958;11.366;2023-04-03T05:34:32;4.07;;;3.77;;
17947;SDS011;9099;47.958;11.366;2023-04-03T05:36:59;4.60;;;4.20;;
17947;SDS011;9099;47.958;11.366;2023-04-03T05:39:26;4.20;;;3.90;;
17947;SDS011;9099;47.958;11.366;2023-04-03T05:41:53;5.20;;;4.70;;
17947;SDS011;9099;47.958;11.366;2023-04-03T05:44:20;5.20;;;4.80;;
17947;SDS011;9099;47.958;11.366;2023-04-03T05:46:47;5.07;;;4.53;;
17947;SDS011;9099;47.958;11.366;2023-04-03T05:49:13;4.70;;;4.30;;
17947;SDS011;9099;47.958;11.366;2023-04-03T05:51:42;3.93;;;3.63;;
17947;SDS011;9099;47.958;11.366;2023-04-03T05:54:11;4.27;;;3.57;;
17947;SDS011;9099;47.958;11.366;2023-04-03T05:56:42;4.10;;;3.77;;
17947;SDS011;9099;47.958;11.366;2023-04-03T05:59:09;4.20;;;3.83;;
17947;SDS011;9099;47.958;11.366;2023-04-03T06:01:36;4.03;;;3.70;;
17947;SDS011;9099;47.958;11.366;2023-04-03T06:04:03;3.80;;;3.47;;
17947;SDS011;9099;47.958;11.366;2023-04-03T06:06:43;4.13;;;3.73;;
17947;SDS011;9099;47.958;11.366;2023-04-03T06:09:11;3.77;;;3.50;;
17947;SDS011;9099;47.958;11.366;2023-04-03T06:11:38;4.10;;;3.80;;
17947;SDS011;9099;47.958;11.366;2023-04-03T06:14:05;4.47;;;4.07;;
17947;SDS011;9099;47.958;11.366;2023-04-03T06:16:33;3.63;;;3.33;;
17947;SDS011;9099;47.958;11.366;2023-04-03T06:18:59;3.67;;;3.40;;
17947;SDS011;9099;47.958;11.366;2023-04-03T06:21:27;4.53;;;4.20;;
17947;SDS011;9099;47.958;11.366;2023-04-03T06:23:55;4.00;;;3.65;;
17947;SDS011;9099;47.958;11.366;2023-04-03T06:26:22;3.57;;;3.27;;
17947;SDS011;9099;47.958;11.366;2023-04-03T06:28:49;4.33;;;3.93;;
17947;SDS011;9099;47.958;11.366;2023-04-03T06:31:16;3.77;;;3.47;;
17947;SDS011;9099;47.958;11.366;2023-04-03T06:33:42;3.70;;;3.40;;
17947;SDS011;9099;47.958;11.366;2023-04-03T06:36:10;4.07;;;3.67;;
17947;SDS011;9099;47.958;11.366;2023-04-03T06:38:38;4.23;;;3.63;;
17947;SDS011;9099;47.958;11.366;2023-04-03T06:41:06;4.07;;;3.77;;
17947;SDS011;9099;47.958;11.366;2023-04-03T06:43:33;3.87;;;3.43;;
17947;SDS011;9099;47.958;11.366;2023-04-03T06:46:00;3.60;;;3.30;;
17947;SDS011;9099;47.958;11.366;2023-04-03T06:48:27;3.47;;;3.17;;
17947;SDS011;9099;47.958;11.366;2023-04-03T06:50:54;3.40;;;3.20;;
17947;SDS011;9099;47.958;11.366;2023-04-03T06:53:21;3.87;;;3.57;;
17947;SDS011;9099;47.958;11.366;2023-04-03T06:55:48;4.07;;;3.67;;
17947;SDS011;9099;47.958;11.366;2023-04-03T06:58:16;3.37;;;3.07;;
17947;SDS011;9099;47.958;11.366;2023-04-03T07:00:43;4.33;;;2.93;;
17947;SDS011;9099;47.958;11.366;2023-04-03T07:03:12;3.95;;;3.17;;
17947;SDS011;9099;47.958;11.366;2023-04-03T07:05:39;3.17;;;2.97;;
17947;SDS011;9099;47.958;11.366;2023-04-03T07:08:09;3.30;;;3.05;;
17947;SDS011;9099;47.958;11.366;2023-04-03T07:10:37;3.53;;;3.10;;
17947;SDS011;9099;47.958;11.366;2023-04-03T07:13:04;3.93;;;3.10;;
17947;SDS011;9099;47.958;11.366;2023-04-03T07:15:32;4.07;;;3.53;;
17947;SDS011;9099;47.958;11.366;2023-04-03T07:18:01;3.30;;;3.03;;
17947;SDS011;9099;47.958;11.366;2023-04-03T07:20:27;3.33;;;2.90;;
17947;SDS011;9099;47.958;11.366;2023-04-03T07:22:54;3.47;;;3.15;;
17947;SDS011;9099;47.958;11.366;2023-04-03T07:25:21;3.37;;;3.07;;
17947;SDS011;9099;47.958;11.366;2023-04-03T07:27:48;3.20;;;3.00;;
17947;SDS011;9099;47.958;11.366;2023-04-03T07:30:15;2.90;;;2.70;;
17947;SDS011;9099;47.958;11.366;2023-04-03T07:32:44;3.53;;;3.23;;
17947;SDS011;9099;47.958;11.366;2023-04-03T07:35:11;3.00;;;2.80;;
17947;SDS011;9099;47.958;11.366;2023-04-03T07:37:38;2.95;;;2.67;;
17947;SDS011;9099;47.958;11.366;2023-04-03T07:40:06;4.78;;;3.30;;
17947;SDS011;9099;47.958;11.366;2023-04-03T07:42:34;3.35;;;2.88;;
17947;SDS011;9099;47.958;11.366;2023-04-03T07:45:01;3.55;;;3.25;;
17947;SDS011;9099;47.958;11.366;2023-04-03T07:47:29;3.45;;;3.25;;
17947;SDS011;9099;47.958;11.366;2023-04-03T07:49:57;3.20;;;2.67;;
17947;SDS011;9099;47.958;11.366;2023-04-03T07:52:24;3.40;;;3.20;;
17947;SDS011;9099;47.958;11.366;2023-04-03T07:54:51;3.67;;;3.38;;
17947;SDS011;9099;47.958;11.366;2023-04-03T07:57:18;3.50;;;3.20;;
17947;SDS011;9099;47.958;11.366;2023-04-03T07:59:44;3.10;;;2.90;;
17947;SDS011;9099;47.958;11.366;2023-04-03T08:02:11;2.80;;;2.60;;
17947;SDS011;9099;47.958;11.366;2023-04-03T08:04:38;3.17;;;2.97;;
17947;SDS011;9099;47.958;11.366;2023-04-03T08:07:07;2.60;;;2.40;;
17947;SDS011;9099;47.958;11.366;2023-04-03T08:09:34;2.97;;;2.78;;
17947;SDS011;9099;47.958;11.366;2023-04-03T08:12:01;3.03;;;2.83;;
17947;SDS011;9099;47.958;11.366;2023-04-03T08:14:29;2.70;;;2.50;;
17947;SDS011;9099;47.958;11.366;2023-04-03T08:16:56;3.35;;;2.35;;
17947;SDS011;9099;47.958;11.366;2023-04-03T08:19:23;5.32;;;3.10;;
17947;SDS011;9099;47.958;11.366;2023-04-03T08:21:50;3.50;;;3.20;;
17947;SDS011;9099;47.958;11.366;2023-04-03T08:24:18;2.63;;;2.40;;
17947;SDS011;9099;47.958;11.366;2023-04-03T08:26:45;3.47;;;2.75;;
17947;SDS011;9099;47.958;11.366;2023-04-03T08:29:12;3.40;;;2.47;;
17947;SDS011;9099;47.958;11.366;2023-04-03T08:31:39;2.80;;;2.60;;
17947;SDS011;9099;47.958;11.366;2023-04-03T08:34:06;3.30;;;2.50;;
17947;SDS011;9099;47.958;11.366;2023-04-03T08:36:33;5.30;;;2.55;;
17947;SDS011;9099;47.958;11.366;2023-04-03T08:39:00;5.57;;;2.78;;
17947;SDS011;9099;47.958;11.366;2023-04-03T08:41:32;3.05;;;2.85;;
17947;SDS011;9099;47.958;11.366;2023-04-03T08:44:02;3.72;;;2.90;;
17947;SDS011;9099;47.958;11.366;2023-04-03T08:46:40;3.53;;;3.22;;
17947;SDS011;9099;47.958;11.366;2023-04-03T08:49:17;3.30;;;3.00;;
17947;SDS011;9099;47.958;11.366;2023-04-03T08:51:49;3.40;;;2.88;;
17947;SDS011;9099;47.958;11.366;2023-04-03T08:54:20;4.22;;;2.63;;
17947;SDS011;9099;47.958;11.366;2023-04-03T08:56:54;2.80;;;2.60;;
17947;SDS011;9099;47.958;11.366;2023-04-03T08:59:24;2.70;;;2.50;;
17947;SDS011;9099;47.958;11.366;2023-04-03T09:01:54;3.35;;;2.95;;
17947;SDS011;9099;47.958;11.366;2023-04-03T09:04:22;3.08;;;2.72;;
17947;SDS011;9099;47.958;11.366;2023-04-03T09:06:51;2.88;;;2.67;;
17947;SDS011;9099;47.958;11.366;2023-04-03T09:09:24;3.20;;;3.00;;
17947;SDS011;9099;47.958;11.366;2023-04-03T09:12:00;3.03;;;2.83;;
17947;SDS011;9099;47.958;11.366;2023-04-03T09:14:36;3.55;;;2.83;;
17947;SDS011;9099;47.958;11.366;2023-04-03T09:17:09;2.60;;;2.40;;
17947;SDS011;9099;47.958;11.366;2023-04-03T09:19:44;2.70;;;2.50;;
17947;SDS011;9099;47.958;11.366;2023-04-03T09:22:22;3.00;;;2.80;;
17947;SDS011;9099;47.958;11.366;2023-04-03T09:24:53;3.60;;;2.78;;
17947;SDS011;9099;47.958;11.366;2023-04-03T09:27:26;2.80;;;2.60;;
17947;SDS011;9099;47.958;11.366;2023-04-03T09:29:54;4.28;;;2.95;;
17947;SDS011;9099;47.958;11.366;2023-04-03T09:32:25;4.45;;;2.83;;
17947;SDS011;9099;47.958;11.366;2023-04-03T09:34:55;2.80;;;2.60;;
17947;SDS011;9099;47.958;11.366;2023-04-03T09:37:35;3.90;;;2.63;;
17947;SDS011;9099;47.958;11.366;2023-04-03T09:40:05;3.20;;;2.60;;
17947;SDS011;9099;47.958;11.366;2023-04-03T09:42:55;2.97;;;2.70;;
17947;SDS011;9099;47.958;11.366;2023-04-03T09:45:24;2.47;;;2.28;;
17947;SDS011;9099;47.958;11.366;2023-04-03T09:48:03;3.38;;;2.60;;
17947;SDS011;9099;47.958;11.366;2023-04-03T09:50:33;2.58;;;2.47;;
17947;SDS011;9099;47.958;11.366;2023-04-03T09:53:04;2.80;;;2.60;;
17947;SDS011;9099;47.958;11.366;2023-04-03T09:55:33;2.55;;;2.33;;
17947;SDS011;9099;47.958;11.366;2023-04-03T09:58:22;2.70;;;2.50;;
17947;SDS011;9099;47.958;11.366;2023-04-03T10:00:54;3.30;;;3.00;;
17947;SDS011;9099;47.958;11.366;2023-04-03T10:03:23;2.88;;;2.33;;
17947;SDS011;9099;47.958;11.366;2023-04-03T10:05:52;2.90;;;2.60;;
17947;SDS011;9099;47.958;11.366;2023-04-03T10:08:21;2.50;;;2.30;;
17947;SDS011;9099;47.958;11.366;2023-04-03T10:11:05;2.75;;;2.53;;
17947;SDS011;9099;47.958;11.366;2023-04-03T10:13:50;2.58;;;2.38;;
17947;SDS011;9099;47.958;11.366;2023-04-03T10:16:20;2.65;;;2.45;;
17947;SDS011;9099;47.958;11.366;2023-04-03T10:18:51;3.83;;;2.70;;
17947;SDS011;9099;47.958;11.366;2023-04-03T10:21:30;3.15;;;2.80;;
17947;SDS011;9099;47.958;11.366;2023-04-03T10:24:07;2.70;;;2.45;;
17947;SDS011;9099;47.958;11.366;2023-04-03T10:26:39;2.70;;;2.50;;
17947;SDS011;9099;47.958;11.366;2023-04-03T10:29:18;2.95;;;2.75;;
17947;SDS011;9099;47.958;11.366;2023-04-03T10:31:56;3.10;;;2.53;;
17947;SDS011;9099;47.958;11.366;2023-04-03T10:34:31;2.42;;;2.33;;
17947;SDS011;9099;47.958;11.366;2023-04-03T10:37:05;2.55;;;2.40;;
17947;SDS011;9099;47.958;11.366;2023-04-03T10:39:42;2.65;;;2.20;;
17947;SDS011;9099;47.958;11.366;2023-04-03T10:42:18;2.25;;;2.05;;
17947;SDS011;9099;47.958;11.366;2023-04-03T10:44:55;2.20;;;2.10;;
17947;SDS011;9099;47.958;11.366;2023-04-03T10:47:30;3.47;;;2.35;;
17947;SDS011;9099;47.958;11.366;2023-04-03T10:50:06;2.30;;;2.20;;
17947;SDS011;9099;47.958;11.366;2023-04-03T10:52:51;2.47;;;2.28;;
17947;SDS011;9099;47.958;11.366;2023-04-03T10:55:29;2.53;;;2.33;;
17947;SDS011;9099;47.958;11.366;2023-04-03T10:58:02;2.55;;;2.30;;
17947;SDS011;9099;47.958;11.366;2023-04-03T11:00:33;2.70;;;2.25;;
17947;SDS011;9099;47.958;11.366;2023-04-03T11:03:05;2.50;;;2.30;;
17947;SDS011;9099;47.958;11.366;2023-04-03T11:05:39;2.30;;;2.10;;
17947;SDS011;9099;47.958;11.366;2023-04-03T11:08:11;2.50;;;2.25;;
17947;SDS011;9099;47.958;11.366;2023-04-03T11:10:49;2.80;;;2.50;;
17947;SDS011;9099;47.958;11.366;2023-04-03T11:13:18;2.33;;;2.13;;
17947;SDS011;9099;47.958;11.366;2023-04-03T11:15:50;3.00;;;2.67;;
17947;SDS011;9099;47.958;11.366;2023-04-03T11:18:21;2.60;;;2.33;;
17947;SDS011;9099;47.958;11.366;2023-04-03T11:20:53;2.83;;;2.40;;
17947;SDS011;9099;47.958;11.366;2023-04-03T11:23:28;2.55;;;2.35;;
17947;SDS011;9099;47.958;11.366;2023-04-03T11:25:59;2.30;;;2.20;;
17947;SDS011;9099;47.958;11.366;2023-04-03T11:28:33;2.45;;;2.25;;
17947;SDS011;9099;47.958;11.366;2023-04-03T11:31:05;2.42;;;2.22;;
17947;SDS011;9099;47.958;11.366;2023-04-03T11:33:42;2.55;;;2.35;;
17947;SDS011;9099;47.958;11.366;2023-04-03T11:36:18;1.98;;;1.88;;
17947;SDS011;9099;47.958;11.366;2023-04-03T11:38:48;2.38;;;2.17;;
17947;SDS011;9099;47.958;11.366;2023-04-03T11:41:22;2.40;;;2.20;;
17947;SDS011;9099;47.958;11.366;2023-04-03T11:43:56;2.17;;;2.00;;
17947;SDS011;9099;47.958;11.366;2023-04-03T11:58:22;2.03;;;1.88;;
17947;SDS011;9099;47.958;11.366;2023-04-03T12:00:56;2.28;;;2.05;;
17947;SDS011;9099;47.958;11.366;2023-04-03T12:12:29;3.45;;;2.50;;
17947;SDS011;9099;47.958;11.366;2023-04-03T12:15:18;4.00;;;2.70;;
17947;SDS011;9099;47.958;11.366;2023-04-03T12:17:47;3.38;;;2.65;;
17947;SDS011;9099;47.958;11.366;2023-04-03T12:23:24;4.32;;;3.60;;
17947;SDS011;9099;47.958;11.366;2023-04-03T12:25:53;3.88;;;3.10;;
17947;SDS011;9099;47.958;11.366;2023-04-03T12:28:29;4.00;;;3.13;;
17947;SDS011;9099;47.958;11.366;2023-04-03T12:30:55;3.88;;;3.22;;
17947;SDS011;9099;47.958;11.366;2023-04-03T12:33:26;2.75;;;2.55;;
17947;SDS011;9099;47.958;11.366;2023-04-03T12:36:04;5.45;;;3.08;;
17947;SDS011;9099;47.958;11.366;2023-04-03T12:38:41;2.63;;;2.40;;
17947;SDS011;9099;47.958;11.366;2023-04-03T12:41:33;3.75;;;2.85;;
17947;SDS011;9099;47.958;11.366;2023-04-03T12:44:16;2.60;;;2.40;;
17947;SDS011;9099;47.958;11.366;2023-04-03T12:46:58;2.90;;;2.53;;
17947;SDS011;9099;47.958;11.366;2023-04-03T12:49:33;2.87;;;2.50;;
17947;SDS011;9099;47.958;11.366;2023-04-03T12:52:06;3.35;;;2.40;;
17947;SDS011;9099;47.958;11.366;2023-04-03T12:54:45;2.45;;;2.08;;
17947;SDS011;9099;47.958;11.366;2023-04-03T12:57:16;2.42;;;2.22;;
17947;SDS011;9099;47.958;11.366;2023-04-03T12:59:44;3.63;;;2.20;;
17947;SDS011;9099;47.958;11.366;2023-04-03T13:02:17;2.97;;;2.35;;
17947;SDS011;9099;47.958;11.366;2023-04-03T13:04:49;4.40;;;2.22;;
17947;SDS011;9099;47.958;11.366;2023-04-03T13:07:22;2.20;;;2.00;;
17947;SDS011;9099;47.958;11.366;2023-04-03T13:09:55;2.90;;;2.50;;
17947;SDS011;9099;47.958;11.366;2023-04-03T13:12:28;3.45;;;2.58;;
17947;SDS011;9099;47.958;11.366;2023-04-03T13:14:56;2.35;;;2.15;;
17947;SDS011;9099;47.958;11.366;2023-04-03T13:17:25;2.22;;;2.03;;
17947;SDS011;9099;47.958;11.366;2023-04-03T13:19:53;4.22;;;2.10;;
17947;SDS011;9099;47.958;11.366;2023-04-03T13:22:28;2.05;;;1.90;;
17947;SDS011;9099;47.958;11.366;2023-04-03T13:25:04;2.72;;;2.33;;
17947;SDS011;9099;47.958;11.366;2023-04-03T13:27:35;2.55;;;2.35;;
17947;SDS011;9099;47.958;11.366;2023-04-03T13:30:03;2.40;;;1.92;;
17947;SDS011;9099;47.958;11.366;2023-04-03T13:32:32;2.38;;;2.10;;
17947;SDS011;9099;47.958;11.366;2023-04-03T13:34:59;2.30;;;2.10;;
17947;SDS011;9099;47.958;11.366;2023-04-03T13:37:28;4.10;;;2.00;;
17947;SDS011;9099;47.958;11.366;2023-04-03T13:39:57;2.05;;;1.83;;
17947;SDS011;9099;47.958;11.366;2023-04-03T13:42:27;2.60;;;1.80;;
17947;SDS011;9099;47.958;11.366;2023-04-03T13:47:53;1.70;;;1.60;;
17947;SDS011;9099;47.958;11.366;2023-04-03T13:50:33;1.60;;;1.50;;
17947;SDS011;9099;47.958;11.366;2023-04-03T13:53:17;1.73;;;1.63;;
17947;SDS011;9099;47.958;11.366;2023-04-03T13:55:52;2.22;;;1.60;;
17947;SDS011;9099;47.958;11.366;2023-04-03T13:58:23;2.38;;;1.58;;
17947;SDS011;9099;47.958;11.366;2023-04-03T14:00:52;1.40;;;1.30;;
17947;SDS011;9099;47.958;11.366;2023-04-03T14:03:22;3.30;;;1.70;;
17947;SDS011;9099;47.958;11.366;2023-04-03T14:05:52;1.73;;;1.63;;
17947;SDS011;9099;47.958;11.366;2023-04-03T14:08:21;1.70;;;1.60;;
17947;SDS011;9099;47.958;11.366;2023-04-03T14:10:48;3.97;;;1.60;;
17947;SDS011;9099;47.958;11.366;2023-04-03T14:13:17;1.98;;;1.45;;
17947;SDS011;9099;47.958;11.366;2023-04-03T14:15:45;2.53;;;2.05;;
17947;SDS011;9099;47.958;11.366;2023-04-03T14:18:14;4.03;;;1.60;;
17947;SDS011;9099;47.958;11.366;2023-04-03T14:20:43;1.35;;;1.30;;
17947;SDS011;9099;47.958;11.366;2023-04-03T14:23:10;2.20;;;1.30;;
17947;SDS011;9099;47.958;11.366;2023-04-03T14:25:39;2.35;;;1.50;;
17947;SDS011;9099;47.958;11.366;2023-04-03T14:28:12;1.95;;;1.85;;
17947;SDS011;9099;47.958;11.366;2023-04-03T14:30:43;1.50;;;1.40;;
17947;SDS011;9099;47.958;11.366;2023-04-03T14:33:12;2.90;;;1.55;;
17947;SDS011;9099;47.958;11.366;2023-04-03T14:35:41;1.70;;;1.60;;
17947;SDS011;9099;47.958;11.366;2023-04-03T14:38:12;1.48;;;1.38;;
17947;SDS011;9099;47.958;11.366;2023-04-03T14:40:49;1.70;;;1.60;;
17947;SDS011;9099;47.958;11.366;2023-04-03T14:43:16;1.60;;;1.50;;
17947;SDS011;9099;47.958;11.366;2023-04-03T14:45:44;5.53;;;1.67;;
17947;SDS011;9099;47.958;11.366;2023-04-03T14:48:11;1.95;;;1.77;;
17947;SDS011;9099;47.958;11.366;2023-04-03T14:50:44;1.58;;;1.48;;
17947;SDS011;9099;47.958;11.366;2023-04-03T14:53:12;2.20;;;1.80;;
17947;SDS011;9099;47.958;11.366;2023-04-03T14:55:40;2.58;;;1.25;;
17947;SDS011;9099;47.958;11.366;2023-04-03T14:58:11;1.58;;;1.48;;
17947;SDS011;9099;47.958;11.366;2023-04-03T15:00:39;3.25;;;1.10;;
17947;SDS011;9099;47.958;11.366;2023-04-03T15:03:09;1.33;;;1.23;;
17947;SDS011;9099;47.958;11.366;2023-04-03T15:05:39;1.38;;;1.10;;
17947;SDS011;9099;47.958;11.366;2023-04-03T15:08:08;1.85;;;1.10;;
17947;SDS011;9099;47.958;11.366;2023-04-03T15:10:43;1.80;;;1.00;;
17947;SDS011;9099;47.958;11.366;2023-04-03T15:13:11;1.20;;;1.05;;
17947;SDS011;9099;47.958;11.366;2023-04-03T15:15:39;1.55;;;1.05;;
17947;SDS011;9099;47.958;11.366;2023-04-03T15:18:06;2.10;;;1.30;;
17947;SDS011;9099;47.958;11.366;2023-04-03T15:20:33;1.60;;;1.30;;
17947;SDS011;9099;47.958;11.366;2023-04-03T15:23:00;1.85;;;1.10;;
17947;SDS011;9099;47.958;11.366;2023-04-03T15:25:28;1.27;;;1.17;;
17947;SDS011;9099;47.958;11.366;2023-04-03T15:27:55;3.63;;;1.27;;
17947;SDS011;9099;47.958;11.366;2023-04-03T15:30:24;1.38;;;1.27;;